Kelly USA, Texas
Current Conditions -  °F | °C
As of 4:58 PM on Saturday 25 Oct 2014 (Local Time) from KSKF Reporting Station
Clear Clear  
Wind Chill: 87°   Ceiling: Unl
Heat Index: 87°   Visibility: 10mi
Dew Point: 54°   Wind: 3mph
Humidity: 32%   Direction: 50°NE
Pressure: 30.08"   Gusts: NA
Location:  29.3853°N, 98.6099°W
Report Text: KSKF 252158Z AUTO 05003KT 10SM CLR 31/12 A3008 RMK AO2 SLP180 T03070124 $
Loading
Personal Weather Stations






























Interactive Weather Map
Tropical Storm Tracking
New forecast layout! Learn more

10-Day Weather Forecast

Advertisements
Track Severe Weather on mobile